Time;durP1;ratioP1;P1;durP2;ratioP2;P2;SDS_P1;SDS_P2;PMS_P1;PMS_P2;Temp;Humidity;BMP_temperature;BMP_pressure;BME280_temperature;BME280_humidity;BME280_pressure;Samples;Min_cycle;Max_cycle;Signal;HPM_P1;HPM_P2
2022/08/23 00:00:00;;;;;;;5.13;2.00;;;;;;;18.67;61.47;100947.81;6036476;28;20092;-65
2022/08/23 00:02:55;;;;;;;3.63;1.83;;;;;;;18.77;61.56;100959.09;6036305;28;20037;-64
2022/08/23 00:05:51;;;;;;;6.23;2.30;;;;;;;18.79;61.27;100951.66;6031991;28;20045;-65
2022/08/23 00:08:47;;;;;;;4.65;2.20;;;;;;;18.71;61.29;100941.06;6040316;28;20026;-64
2022/08/23 00:11:50;;;;;;;4.55;2.17;;;;;;;18.78;61.15;100960.75;6040942;28;20038;-64
2022/08/23 00:14:50;;;;;;;5.60;2.08;;;;;;;18.74;61.42;100962.16;6044318;28;20112;-64
2022/08/23 00:17:45;;;;;;;4.30;1.88;;;;;;;18.78;61.30;100959.94;6037837;28;20041;-65
2022/08/23 00:20:41;;;;;;;5.88;2.20;;;;;;;18.64;61.38;100950.09;6036334;28;20390;-64
2022/08/23 00:23:36;;;;;;;6.05;2.55;;;;;;;18.64;61.48;100953.63;6037883;28;20116;-65
2022/08/23 00:27:07;;;;;;;4.37;1.90;;;;;;;18.66;61.54;100959.63;6042793;28;20048;-65
2022/08/23 00:30:05;;;;;;;6.30;1.95;;;;;;;18.58;61.87;100948.16;6010835;28;20030;-65
2022/08/23 00:33:00;;;;;;;3.78;1.90;;;;;;;18.54;61.93;100942.34;6034779;28;20030;-63
2022/08/23 00:35:56;;;;;;;6.60;2.27;;;;;;;18.59;61.57;100939.91;6046177;28;20087;-65
2022/08/23 00:38:51;;;;;;;8.27;2.50;;;;;;;18.59;61.65;100944.47;6038398;28;20041;-64
2022/08/23 00:41:48;;;;;;;3.90;2.20;;;;;;;18.71;61.54;100951.81;6046539;28;20030;-64
2022/08/23 00:47:59;;;;;;;5.95;2.33;;;;;;;18.65;61.72;100949.03;6049592;28;20390;-65
2022/08/23 00:51:11;;;;;;;4.82;1.75;;;;;;;18.65;61.69;100955.25;6062166;28;20041;-64
2022/08/23 00:54:08;;;;;;;3.55;2.13;;;;;;;18.56;62.16;100951.06;6047532;28;20034;-64
2022/08/23 00:57:08;;;;;;;5.25;2.15;;;;;;;18.60;62.18;100960.38;6066470;28;20042;-65
2022/08/23 01:00:07;;;;;;;5.65;1.90;;;;;;;18.53;61.96;100948.75;6049761;28;20330;-64
2022/08/23 01:03:06;;;;;;;4.03;1.75;;;;;;;18.57;62.08;100952.69;6033891;28;20083;-65
2022/08/23 01:06:07;;;;;;;9.05;2.25;;;;;;;18.52;62.49;100959.66;6049366;28;20757;-65
2022/08/23 01:09:11;;;;;;;4.13;2.10;;;;;;;18.49;62.57;100955.50;6045162;28;20555;-65
2022/08/23 01:12:13;;;;;;;5.15;2.13;;;;;;;18.55;62.32;100954.75;6049852;28;20030;-65
2022/08/23 01:15:15;;;;;;;4.97;2.03;;;;;;;18.57;62.33;100957.22;6050448;28;20447;-65
2022/08/23 01:18:12;;;;;;;4.70;1.98;;;;;;;18.42;62.88;100959.97;6051049;28;20030;-64
2022/08/23 01:21:07;;;;;;;4.43;1.83;;;;;;;18.42;63.00;100962.66;6038499;28;20039;-64
2022/08/23 01:24:03;;;;;;;4.17;2.07;;;;;;;18.29;63.00;100954.47;6041022;28;20112;-64
2022/08/23 01:26:59;;;;;;;6.50;2.50;;;;;;;18.35;62.98;100961.72;6060212;28;20037;-64
2022/08/23 01:29:54;;;;;;;4.40;2.10;;;;;;;18.27;63.41;100959.16;6045724;28;20066;-64
2022/08/23 01:32:53;;;;;;;4.10;2.20;;;;;;;18.22;63.88;100969.66;6050187;28;20044;-64
2022/08/23 01:35:54;;;;;;;5.05;2.00;;;;;;;18.18;64.10;100965.69;6048194;28;20029;-64
2022/08/23 01:38:50;;;;;;;4.45;2.17;;;;;;;18.06;64.07;100968.03;6051170;28;20505;-64
2022/08/23 01:41:45;;;;;;;7.18;2.45;;;;;;;17.99;64.62;100958.22;6052812;28;20076;-64
2022/08/23 01:44:40;;;;;;;5.78;2.28;;;;;;;18.04;64.66;100975.44;6047328;28;20045;-64
2022/08/23 01:47:36;;;;;;;3.60;2.10;;;;;;;17.77;64.95;100955.47;6049024;28;20470;-65
2022/08/23 01:50:32;;;;;;;4.00;2.05;;;;;;;17.71;65.49;100964.28;6050290;28;20033;-64
2022/08/23 01:53:28;;;;;;;5.18;2.30;;;;;;;17.79;65.56;100974.91;6044411;28;20037;-65
2022/08/23 01:56:23;;;;;;;8.13;3.57;;;;;;;17.77;66.04;100982.28;6038849;28;20040;-65
2022/08/23 01:59:19;;;;;;;6.60;2.20;;;;;;;17.68;66.24;100978.06;6045243;28;20351;-64
2022/08/23 02:02:14;;;;;;;6.63;2.30;;;;;;;17.68;66.39;100987.94;6030892;28;20392;-64
2022/08/23 02:05:09;;;;;;;5.33;2.23;;;;;;;17.55;66.48;100980.56;6042188;28;20805;-65
2022/08/23 02:11:22;;;;;;;5.90;2.67;;;;;;;17.38;66.91;100965.63;6035809;28;20490;-64
2022/08/23 02:14:19;;;;;;;4.90;2.60;;;;;;;17.40;67.00;100974.31;6038915;28;20036;-64
2022/08/23 02:17:17;;;;;;;5.55;2.42;;;;;;;17.32;67.42;100971.72;6027636;28;20050;-64
2022/08/23 02:20:13;;;;;;;5.43;2.40;;;;;;;17.23;68.00;100987.03;6040218;28;20062;-65
2022/08/23 02:23:08;;;;;;;8.18;2.65;;;;;;;17.16;68.27;100982.59;6033875;28;20030;-64
2022/08/23 02:26:05;;;;;;;8.37;2.47;;;;;;;17.06;68.17;100977.50;6045974;28;20496;-63
2022/08/23 02:29:01;;;;;;;5.55;2.83;;;;;;;17.04;68.71;100973.34;6028883;28;20432;-64
2022/08/23 02:31:57;;;;;;;4.50;2.40;;;;;;;17.02;68.93;100981.56;6036664;28;20038;-64
2022/08/23 02:34:52;;;;;;;5.30;2.13;;;;;;;17.01;68.99;100997.81;6030612;28;20338;-64
2022/08/23 02:37:48;;;;;;;6.40;2.40;;;;;;;16.98;69.16;100996.34;6031070;28;20042;-64
2022/08/23 02:40:43;;;;;;;5.80;2.30;;;;;;;16.94;69.36;100991.50;6041084;28;20030;-64
2022/08/23 02:43:39;;;;;;;4.60;2.67;;;;;;;16.94;68.96;100992.34;6025865;28;20042;-65
2022/08/23 02:46:34;;;;;;;4.60;2.50;;;;;;;16.85;69.56;100989.94;6042706;28;20049;-65
2022/08/23 02:49:30;;;;;;;7.90;2.80;;;;;;;16.83;69.69;100999.97;6034707;28;20389;-64
2022/08/23 02:52:25;;;;;;;7.68;2.50;;;;;;;16.71;70.08;100993.38;6047451;28;20034;-65
2022/08/23 02:55:20;;;;;;;5.03;2.20;;;;;;;16.70;69.91;101002.41;6032410;28;20409;-64
2022/08/23 02:58:16;;;;;;;4.80;2.57;;;;;;;16.65;70.34;101001.13;6036189;28;20040;-64
2022/08/23 03:01:19;;;;;;;4.63;2.37;;;;;;;16.53;70.57;100986.47;6042873;28;20733;-66
2022/08/23 03:04:15;;;;;;;7.50;2.63;;;;;;;16.55;70.80;101002.38;6035029;28;20034;-64
2022/08/23 03:07:10;;;;;;;5.35;2.70;;;;;;;16.54;71.39;100998.00;6043416;28;20032;-65
2022/08/23 03:10:07;;;;;;;6.97;3.08;;;;;;;16.59;70.51;100990.28;6045051;28;20080;-64
2022/08/23 03:13:02;;;;;;;4.63;2.30;;;;;;;16.57;70.37;100997.66;6047616;28;20046;-64
2022/08/23 03:15:57;;;;;;;8.10;2.67;;;;;;;16.61;70.65;101015.03;6043938;28;20061;-64
2022/08/23 03:18:53;;;;;;;4.63;2.60;;;;;;;16.40;71.24;101012.13;6045569;28;20036;-64
2022/08/23 03:21:48;;;;;;;4.35;2.72;;;;;;;16.35;71.12;101009.97;6046859;28;20022;-64
2022/08/23 03:24:44;;;;;;;4.07;2.47;;;;;;;16.48;70.96;101012.06;6040324;28;20034;-65
2022/08/23 03:27:39;;;;;;;6.22;3.00;;;;;;;16.27;72.09;101018.06;6037723;28;20121;-65
2022/08/23 03:30:35;;;;;;;6.83;3.13;;;;;;;16.10;72.25;101011.09;6037886;28;20382;-63
2022/08/23 03:33:30;;;;;;;6.80;3.13;;;;;;;16.07;72.84;101019.47;6026250;28;20030;-65
2022/08/23 03:36:25;;;;;;;10.83;3.30;;;;;;;16.00;73.02;101015.84;6039466;28;20038;-64
2022/08/23 03:39:21;;;;;;;7.30;3.07;;;;;;;15.88;73.41;101014.53;6036031;28;20036;-65
2022/08/23 03:42:17;;;;;;;10.15;3.38;;;;;;;15.76;73.87;101015.94;6045979;28;20029;-65
2022/08/23 03:45:13;;;;;;;8.55;3.08;;;;;;;15.70;74.32;101014.78;6038477;28;20100;-64
2022/08/23 03:48:08;;;;;;;5.47;2.90;;;;;;;15.83;74.31;101036.47;6039849;28;20457;-65
2022/08/23 03:51:04;;;;;;;7.33;2.90;;;;;;;15.75;74.65;101027.63;6043154;28;20461;-64
2022/08/23 03:54:00;;;;;;;7.50;3.53;;;;;;;15.56;75.25;101022.66;6038284;28;20023;-64
2022/08/23 03:57:04;;;;;;;7.18;3.33;;;;;;;15.46;75.46;101029.00;6038865;28;20155;-65
2022/08/23 03:59:59;;;;;;;5.03;3.22;;;;;;;15.46;75.82;101033.56;6038534;28;20033;-65
2022/08/23 04:02:55;;;;;;;5.73;3.10;;;;;;;15.50;75.99;101029.50;6040467;28;20038;-64
2022/08/23 04:05:50;;;;;;;7.30;3.00;;;;;;;15.46;75.45;101028.22;6039924;28;20038;-65
2022/08/23 04:08:46;;;;;;;7.97;3.13;;;;;;;15.43;75.49;101032.03;6040486;28;20497;-65
2022/08/23 04:11:42;;;;;;;7.28;2.90;;;;;;;15.40;76.17;101027.00;6039471;28;20117;-64
2022/08/23 04:14:37;;;;;;;6.35;3.10;;;;;;;15.41;76.19;101031.34;6041852;28;20362;-66
2022/08/23 04:17:32;;;;;;;5.85;3.38;;;;;;;15.45;76.40;101038.03;6037336;28;20058;-65
2022/08/23 04:20:28;;;;;;;7.43;3.47;;;;;;;15.57;75.91;101043.91;6025600;28;20034;-64
2022/08/23 04:23:24;;;;;;;5.90;2.53;;;;;;;15.51;76.28;101046.41;6027733;28;20034;-65
2022/08/23 04:26:20;;;;;;;9.30;3.20;;;;;;;15.40;76.66;101045.72;6043229;28;20091;-65
2022/08/23 04:29:16;;;;;;;7.53;3.28;;;;;;;15.33;77.14;101049.22;6037037;28;20040;-65
2022/08/23 04:32:11;;;;;;;12.35;3.75;;;;;;;15.38;77.31;101053.06;6040705;28;20030;-66
2022/08/23 04:35:07;;;;;;;7.77;3.57;;;;;;;15.45;76.83;101047.88;6037935;28;20040;-65
2022/08/23 04:38:02;;;;;;;7.38;3.63;;;;;;;15.47;76.81;101044.06;6034139;28;20273;-63
2022/08/23 04:44:13;;;;;;;6.25;3.38;;;;;;;15.56;76.31;101055.56;6038090;28;20473;-65
2022/08/23 04:47:08;;;;;;;8.18;3.78;;;;;;;15.55;76.71;101053.06;6045823;28;20034;-65
2022/08/23 04:50:05;;;;;;;7.60;4.38;;;;;;;15.44;76.96;101057.72;6045816;28;20092;-65
2022/08/23 04:53:01;;;;;;;7.38;3.90;;;;;;;15.34;77.48;101062.41;6034874;28;20121;-64
2022/08/23 04:55:56;;;;;;;7.38;3.63;;;;;;;15.32;77.70;101064.44;6040551;28;20038;-65
2022/08/23 04:58:51;;;;;;;8.47;3.93;;;;;;;15.36;77.53;101063.06;6034531;28;20466;-65
2022/08/23 05:01:48;;;;;;;12.17;4.10;;;;;;;15.37;77.18;101062.09;6034903;28;20032;-64
2022/08/23 05:04:43;;;;;;;9.60;4.80;;;;;;;15.43;77.70;101077.47;6043747;28;20026;-64
2022/08/23 05:07:39;;;;;;;9.00;4.40;;;;;;;15.48;77.43;101083.16;6027583;28;20034;-62
2022/08/23 05:10:34;;;;;;;8.15;3.80;;;;;;;15.55;77.21;101069.09;6038262;28;20603;-63
2022/08/23 05:13:30;;;;;;;6.60;4.07;;;;;;;15.61;77.07;101063.06;6038211;28;20041;-63
2022/08/23 05:16:25;;;;;;;7.20;4.07;;;;;;;15.67;76.67;101076.63;6039710;28;20768;-64
2022/08/23 05:19:21;;;;;;;8.95;4.25;;;;;;;15.69;76.40;101077.28;6036022;28;20034;-63
2022/08/23 05:22:17;;;;;;;6.90;4.53;;;;;;;15.87;76.10;101085.91;6041186;28;20052;-64
2022/08/23 05:25:12;;;;;;;8.60;3.90;;;;;;;15.90;76.32;101084.72;6044783;28;20029;-65
2022/08/23 05:28:07;;;;;;;9.00;3.53;;;;;;;16.35;74.69;101084.94;6038971;28;20050;-64
2022/08/23 05:31:07;;;;;;;6.83;3.40;;;;;;;16.97;71.85;101069.69;6049272;28;20032;-64
2022/08/23 05:34:03;;;;;;;9.20;3.67;;;;;;;17.46;69.74;101086.22;6039794;28;20037;-65
2022/08/23 05:36:59;;;;;;;8.27;3.70;;;;;;;17.90;67.92;101086.31;6041197;28;20033;-65
2022/08/23 05:39:54;;;;;;;6.70;3.60;;;;;;;17.88;67.77;101074.09;6044145;28;20088;-64
2022/08/23 05:42:49;;;;;;;6.20;3.20;;;;;;;17.99;67.82;101081.69;6041584;28;20549;-65
2022/08/23 05:45:45;;;;;;;8.50;3.80;;;;;;;18.32;66.14;101099.88;6044255;28;20533;-66
2022/08/23 05:48:42;;;;;;;6.85;3.40;;;;;;;18.24;66.22;101112.56;6049693;28;20538;-65
2022/08/23 05:51:37;;;;;;;6.40;3.63;;;;;;;18.23;66.64;101108.25;6038112;28;20082;-64
2022/08/23 05:54:33;;;;;;;7.27;3.33;;;;;;;18.05;67.11;101097.03;6049717;28;20042;-63
2022/08/23 05:57:29;;;;;;;5.88;3.40;;;;;;;18.49;66.06;101105.09;6044955;28;20278;-64
2022/08/23 06:00:24;;;;;;;7.87;3.70;;;;;;;18.45;66.55;101093.88;6043042;28;20041;-64
2022/08/23 06:03:19;;;;;;;6.30;3.50;;;;;;;18.80;65.03;101106.53;6042342;28;20065;-65
2022/08/23 06:06:16;;;;;;;5.50;3.50;;;;;;;18.82;64.57;101096.41;6044958;28;20353;-65
2022/08/23 06:09:13;;;;;;;7.00;3.95;;;;;;;18.89;63.85;101102.66;6043895;28;20058;-64
2022/08/23 06:12:08;;;;;;;7.72;3.78;;;;;;;18.95;64.04;101112.66;6041957;28;20033;-64
2022/08/23 06:15:05;;;;;;;9.70;4.03;;;;;;;18.54;65.51;101106.19;6032211;28;20042;-64
2022/08/23 06:18:01;;;;;;;7.40;3.42;;;;;;;18.97;64.67;101105.25;6044024;28;20424;-64
2022/08/23 06:21:05;;;;;;;5.50;3.47;;;;;;;19.51;62.28;101115.53;6026844;28;20026;-65
2022/08/23 06:24:01;;;;;;;7.28;3.78;;;;;;;19.38;63.22;101094.69;6041651;28;20037;-64
2022/08/23 06:26:56;;;;;;;5.70;3.47;;;;;;;19.24;63.55;101117.09;6045244;28;20362;-64
2022/08/23 06:29:51;;;;;;;5.30;3.22;;;;;;;19.78;61.84;101103.94;6048679;28;20076;-63
2022/08/23 06:32:47;;;;;;;8.73;3.20;;;;;;;19.57;62.24;101109.34;6040080;28;20041;-64
2022/08/23 06:35:42;;;;;;;8.30;3.60;;;;;;;20.03;60.63;101107.81;6048463;28;20053;-64
2022/08/23 06:38:39;;;;;;;7.60;3.23;;;;;;;20.19;60.16;101107.50;6042702;28;20033;-64
2022/08/23 06:41:34;;;;;;;5.45;3.22;;;;;;;20.48;58.52;101111.00;6032604;28;20335;-64
2022/08/23 06:44:31;;;;;;;5.85;2.83;;;;;;;20.41;59.07;101131.69;6042357;28;20038;-63
2022/08/23 06:47:27;;;;;;;7.60;3.03;;;;;;;20.32;59.35;101127.50;6040021;28;20040;-65
2022/08/23 06:50:22;;;;;;;8.43;2.95;;;;;;;20.52;59.27;101125.75;6037080;28;20125;-64
2022/08/23 06:53:18;;;;;;;5.10;3.10;;;;;;;20.26;59.66;101122.91;6035094;28;20034;-64
2022/08/23 06:56:13;;;;;;;7.40;2.93;;;;;;;20.77;58.91;101137.63;6041662;28;20359;-63
2022/08/23 06:59:08;;;;;;;7.63;2.90;;;;;;;21.28;57.16;101128.03;6035903;28;20653;-65
2022/08/23 07:02:06;;;;;;;7.50;3.07;;;;;;;21.42;56.13;101130.75;6029736;28;20030;-65
2022/08/23 07:05:04;;;;;;;6.75;2.85;;;;;;;20.95;56.60;101123.59;6036084;28;20030;-64
2022/08/23 07:08:00;;;;;;;6.32;2.70;;;;;;;21.37;56.25;101134.06;6031143;28;20030;-65
2022/08/23 07:10:55;;;;;;;9.17;2.80;;;;;;;21.23;56.20;101127.00;6028301;28;20242;-64
2022/08/23 07:13:51;;;;;;;6.30;2.17;;;;;;;21.29;55.87;101129.72;6042660;28;20031;-65
2022/08/23 07:16:56;;;;;;;7.30;2.35;;;;;;;21.79;55.01;101124.75;6035949;28;20045;-64
2022/08/23 07:19:52;;;;;;;6.35;2.20;;;;;;;22.13;52.69;101119.09;6030376;28;20428;-64
2022/08/23 07:22:48;;;;;;;6.03;2.00;;;;;;;22.28;52.70;101117.00;6037796;28;20029;-64
2022/08/23 07:25:43;;;;;;;3.50;2.22;;;;;;;21.98;52.35;101120.41;6030997;28;20088;-64
2022/08/23 07:28:39;;;;;;;4.27;2.07;;;;;;;22.20;50.81;101136.16;6025561;28;20529;-64
2022/08/23 07:31:38;;;;;;;5.47;1.88;;;;;;;22.24;50.69;101115.75;6031680;28;20433;-65
2022/08/23 07:34:34;;;;;;;6.68;2.20;;;;;;;22.30;50.88;101125.72;6036648;28;20065;-64
2022/08/23 07:37:29;;;;;;;3.10;1.63;;;;;;;22.33;49.18;101109.09;6033428;28;20042;-66
2022/08/23 07:40:25;;;;;;;3.03;1.40;;;;;;;22.64;47.60;101127.28;6043765;28;20495;-65
2022/08/23 07:43:20;;;;;;;3.65;1.90;;;;;;;22.83;46.79;101125.56;6049154;28;21791;-66
2022/08/23 07:46:16;;;;;;;5.20;1.60;;;;;;;22.60;46.72;101117.91;6037438;28;20025;-64
2022/08/23 07:49:11;;;;;;;3.92;1.60;;;;;;;22.70;45.99;101117.47;6038344;28;20030;-65
2022/08/23 07:52:07;;;;;;;2.85;1.27;;;;;;;22.86;45.37;101119.69;6031197;28;20040;-65
2022/08/23 07:55:02;;;;;;;2.17;1.20;;;;;;;22.79;45.14;101124.31;6035774;28;20044;-63
2022/08/23 07:57:58;;;;;;;3.17;1.25;;;;;;;22.84;45.34;101138.84;6040757;28;20030;-65
2022/08/23 08:00:54;;;;;;;4.10;1.70;;;;;;;22.83;45.50;101136.38;6054373;28;20496;-65
2022/08/23 08:03:52;;;;;;;2.35;1.23;;;;;;;23.30;44.48;101127.75;6029348;28;20039;-65
2022/08/23 08:06:49;;;;;;;1.85;1.08;;;;;;;23.59;44.19;101137.16;6032319;28;20131;-65
2022/08/23 08:09:44;;;;;;;1.88;1.00;;;;;;;23.39;44.24;101131.88;6037628;28;20081;-64
2022/08/23 08:12:39;;;;;;;2.73;1.00;;;;;;;23.22;44.71;101138.00;6037268;28;20465;-65
2022/08/23 08:15:35;;;;;;;2.10;1.00;;;;;;;23.53;44.34;101143.44;6035606;28;20524;-65
2022/08/23 08:18:30;;;;;;;3.30;1.52;;;;;;;23.60;44.26;101153.16;6037924;28;20073;-64
2022/08/23 08:21:27;;;;;;;1.67;0.95;;;;;;;23.91;43.64;101135.19;6032754;28;20037;-65
2022/08/23 08:24:22;;;;;;;2.60;1.20;;;;;;;23.74;43.59;101132.22;6044421;28;20038;-65
2022/08/23 08:27:18;;;;;;;3.42;1.30;;;;;;;23.94;44.47;101145.59;6036256;28;20030;-64
2022/08/23 08:30:13;;;;;;;3.07;1.20;;;;;;;24.21;43.87;101145.16;6039801;28;20489;-65
2022/08/23 08:33:08;;;;;;;3.13;1.20;;;;;;;24.61;42.99;101145.50;6041416;28;20029;-64
2022/08/23 08:36:05;;;;;;;3.80;1.60;;;;;;;24.55;43.11;101132.84;6037173;28;20026;-65
2022/08/23 08:39:03;;;;;;;5.30;1.33;;;;;;;24.33;43.73;101125.38;6045255;28;20812;-65
2022/08/23 08:42:30;;;;;;;4.05;1.00;;;;;;;24.37;42.93;101141.00;6045329;28;20504;-64
2022/08/23 08:45:43;;;;;;;4.75;1.00;;;;;;;24.20;43.16;101139.94;6054859;28;20038;-64
2022/08/23 08:48:47;;;;;;;3.63;1.30;;;;;;;24.42;41.50;101132.19;6030930;28;20060;-65
2022/08/23 08:52:00;;;;;;;0.77;0.70;;;;;;;24.48;42.26;101142.13;6029709;28;20134;-64
2022/08/23 08:55:05;;;;;;;1.90;0.80;;;;;;;24.52;42.32;101136.00;6031447;28;20111;-64
2022/08/23 08:58:01;;;;;;;2.55;1.10;;;;;;;24.46;42.11;101138.81;6046122;28;20026;-64
2022/08/23 09:00:57;;;;;;;3.97;1.30;;;;;;;24.67;41.95;101152.75;6060222;28;20038;-65
2022/08/23 09:03:54;;;;;;;4.07;1.30;;;;;;;24.45;42.56;101131.72;6050666;28;20073;-65
2022/08/23 09:07:05;;;;;;;2.25;0.80;;;;;;;24.58;43.19;101147.84;6049341;28;20022;-65
2022/08/23 09:10:16;;;;;;;7.50;1.10;;;;;;;24.44;42.40;101141.75;6043770;28;20663;-65
2022/08/23 09:13:34;;;;;;;3.75;1.20;;;;;;;24.55;41.88;101143.69;6033142;28;20153;-64
2022/08/23 09:16:49;;;;;;;1.98;1.02;;;;;;;24.51;42.14;101131.66;6065061;28;20030;-65
2022/08/23 09:19:46;;;;;;;2.58;0.90;;;;;;;24.59;42.47;101139.50;6049644;28;20034;-64
2022/08/23 09:22:44;;;;;;;3.05;1.02;;;;;;;24.47;42.88;101133.16;6047904;28;20030;-65
2022/08/23 09:25:40;;;;;;;1.20;0.90;;;;;;;24.92;42.75;101117.38;6040754;28;20427;-65
2022/08/23 09:28:35;;;;;;;3.17;1.10;;;;;;;25.12;41.77;101122.50;6037220;28;20037;-64
2022/08/23 09:31:46;;;;;;;2.33;1.10;;;;;;;25.41;42.49;101133.31;6049160;28;20628;-65
2022/08/23 09:34:42;;;;;;;2.50;0.90;;;;;;;25.21;41.22;101124.69;6065374;28;20077;-66
2022/08/23 09:37:52;;;;;;;4.20;1.05;;;;;;;25.19;41.30;101136.84;6049857;28;20385;-64
2022/08/23 09:40:48;;;;;;;2.30;1.00;;;;;;;25.39;42.00;101123.75;6046881;28;20041;-64
2022/08/23 09:43:47;;;;;;;2.58;1.10;;;;;;;25.12;41.45;101127.94;6049243;28;20060;-65
2022/08/23 09:46:42;;;;;;;1.92;1.08;;;;;;;25.31;40.61;101127.66;6049355;28;20041;-65
2022/08/23 09:49:39;;;;;;;3.00;1.23;;;;;;;25.35;40.17;101133.44;6050012;28;20041;-64
2022/08/23 09:52:36;;;;;;;1.75;1.00;;;;;;;25.35;40.38;101128.03;6048916;28;20116;-65
2022/08/23 09:55:35;;;;;;;2.97;1.00;;;;;;;25.44;41.04;101137.47;6049951;28;20037;-65
2022/08/23 09:58:37;;;;;;;2.22;0.90;;;;;;;25.38;38.78;101119.41;6048578;28;20108;-65
2022/08/23 10:01:34;;;;;;;3.17;1.27;;;;;;;25.86;38.25;101109.19;6047367;28;20029;-65
2022/08/23 10:04:40;;;;;;;2.15;0.82;;;;;;;25.85;38.57;101112.97;6046911;28;20038;-65
2022/08/23 10:07:38;;;;;;;3.28;1.15;;;;;;;25.76;38.62;101119.84;6049155;28;20036;-65
2022/08/23 10:10:51;;;;;;;5.75;1.30;;;;;;;26.06;38.20;101127.03;6048278;28;20058;-65
2022/08/23 10:13:46;;;;;;;1.38;0.90;;;;;;;26.06;37.53;101106.13;6046638;28;20037;-65
2022/08/23 10:17:07;;;;;;;3.60;1.10;;;;;;;26.22;37.70;101120.91;6044655;28;20046;-65
2022/08/23 10:20:20;;;;;;;2.85;0.90;;;;;;;26.13;37.82;101120.44;6040646;28;21017;-65
2022/08/23 10:23:32;;;;;;;1.33;0.80;;;;;;;26.53;36.27;101120.47;6063816;28;20044;-65
2022/08/23 10:26:33;;;;;;;2.30;1.23;;;;;;;26.58;36.44;101104.25;6048349;28;20030;-65
2022/08/23 10:29:42;;;;;;;1.05;0.80;;;;;;;26.52;34.11;101097.06;6048670;28;20469;-64
2022/08/23 10:32:59;;;;;;;2.35;0.90;;;;;;;26.40;36.37;101101.72;6045706;28;20029;-65
2022/08/23 10:36:00;;;;;;;6.25;1.15;;;;;;;26.08;36.21;101089.56;6041070;28;20029;-65
2022/08/23 10:38:59;;;;;;;1.63;1.10;;;;;;;26.10;36.42;101088.25;6048288;28;20040;-65
2022/08/23 10:42:18;;;;;;;1.98;1.00;;;;;;;26.45;38.46;101093.66;6047974;28;20037;-66
2022/08/23 10:45:21;;;;;;;1.90;1.10;;;;;;;26.29;38.50;101097.13;6063562;28;20165;-64
2022/08/23 10:48:19;;;;;;;2.10;1.08;;;;;;;26.61;38.53;101101.88;6048418;28;20033;-65
2022/08/23 10:51:20;;;;;;;3.13;1.23;;;;;;;26.58;37.37;101101.53;6037229;28;20072;-66
2022/08/23 10:54:44;;;;;;;5.53;1.20;;;;;;;26.97;36.63;101089.81;6044416;28;20033;-65
2022/08/23 10:57:40;;;;;;;2.78;1.05;;;;;;;26.35;36.93;101101.59;6039024;28;20116;-65
2022/08/23 11:00:36;;;;;;;2.95;1.17;;;;;;;26.58;36.71;101106.97;6039406;28;20122;-66
2022/08/23 11:03:36;;;;;;;4.25;1.48;;;;;;;26.68;36.52;101099.03;6066447;28;20033;-65
2022/08/23 11:06:34;;;;;;;3.30;1.10;;;;;;;26.63;36.83;101093.50;6061031;28;20571;-65
2022/08/23 11:09:49;;;;;;;3.85;1.30;;;;;;;27.01;36.97;101088.25;6043883;28;20486;-65
2022/08/23 11:12:57;;;;;;;5.38;1.60;;;;;;;26.96;36.78;101090.88;6047108;28;20061;-65
2022/08/23 11:15:59;;;;;;;2.70;1.27;;;;;;;27.22;36.17;101080.44;6038340;28;21401;-65
2022/08/23 11:18:55;;;;;;;3.92;1.20;;;;;;;27.39;35.84;101082.09;6040290;28;20045;-66
2022/08/23 11:21:50;;;;;;;3.80;1.35;;;;;;;27.22;35.38;101083.16;6036834;28;20405;-66
2022/08/23 11:24:57;;;;;;;3.27;1.30;;;;;;;27.58;35.35;101075.38;6045868;28;20041;-65
2022/08/23 11:28:29;;;;;;;2.90;1.23;;;;;;;27.45;35.54;101086.56;6052320;28;20335;-65
2022/08/23 11:31:28;;;;;;;2.65;1.10;;;;;;;27.75;34.85;101069.88;6046661;28;20048;-66
2022/08/23 11:34:34;;;;;;;2.38;1.17;;;;;;;27.91;35.17;101081.84;6032901;28;20477;-65
2022/08/23 11:37:55;;;;;;;4.07;1.30;;;;;;;27.76;33.92;101076.97;6036214;28;20030;-66
2022/08/23 11:40:51;;;;;;;3.28;1.25;;;;;;;27.70;34.45;101077.97;6039507;28;20117;-66
2022/08/23 11:43:55;;;;;;;2.60;1.17;;;;;;;27.33;34.77;101094.00;6037374;28;20030;-66
2022/08/23 11:46:54;;;;;;;5.93;1.23;;;;;;;27.70;34.42;101077.97;6039006;28;20301;-66
2022/08/23 11:50:14;;;;;;;5.72;1.10;;;;;;;27.33;34.60;101071.34;6046764;28;20034;-65
2022/08/23 11:53:16;;;;;;;2.35;1.20;;;;;;;27.83;34.44;101077.63;6046956;28;20540;-66
2022/08/23 11:56:53;;;;;;;4.07;1.00;;;;;;;27.87;33.34;101072.50;6041304;28;20038;-66
2022/08/23 11:59:54;;;;;;;;;;;;;;;27.76;32.85;101082.44;6030147;28;20047;-66
2022/08/23 12:02:51;;;;;;;4.40;1.00;;;;;;;28.11;32.63;101074.78;6046158;28;19918;-67
2022/08/23 12:05:49;;;;;;;2.55;1.17;;;;;;;28.10;32.92;101078.56;6046643;28;20052;-65
2022/08/23 12:08:53;;;;;;;3.78;1.10;;;;;;;27.81;33.40;101066.16;6046516;28;20493;-66
2022/08/23 12:11:54;;;;;;;4.15;1.20;;;;;;;27.92;34.09;101062.50;6045808;28;20033;-66
2022/08/23 12:14:53;;;;;;;3.17;1.27;;;;;;;28.30;33.89;101059.75;6043360;28;20124;-66
2022/08/23 12:17:50;;;;;;;1.98;1.08;;;;;;;27.98;34.24;101064.22;6033753;28;20097;-65
2022/08/23 12:20:45;;;;;;;3.13;1.30;;;;;;;27.66;35.05;101055.03;6021535;28;20520;-64
2022/08/23 12:23:48;;;;;;;3.78;1.23;;;;;;;27.96;33.59;101039.09;6028574;28;20038;-65
2022/08/23 12:27:01;;;;;;;3.05;1.27;;;;;;;28.04;33.06;101052.34;6045697;28;20576;-64
2022/08/23 12:30:10;;;;;;;2.72;1.27;;;;;;;28.28;33.00;101056.47;6058387;28;20753;-65
2022/08/23 12:33:43;;;;;;;2.60;1.30;;;;;;;28.24;32.71;101060.75;6043853;28;20065;-65
2022/08/23 12:36:55;;;;;;;5.20;1.20;;;;;;;27.91;33.51;101047.19;6045120;28;20018;-65
2022/08/23 12:39:56;;;;;;;2.67;1.05;;;;;;;28.14;33.34;101041.53;6045005;28;20030;-65
2022/08/23 12:43:02;;;;;;;3.45;1.08;;;;;;;27.77;33.02;101051.38;6043528;28;20446;-65
2022/08/23 12:46:01;;;;;;;4.63;1.10;;;;;;;28.23;32.94;101056.41;6041192;28;20034;-64
2022/08/23 12:48:57;;;;;;;5.50;1.13;;;;;;;28.79;31.72;101038.75;6044381;28;20415;-65
2022/08/23 12:51:55;;;;;;;4.53;1.07;;;;;;;29.20;30.76;101039.13;6039736;28;20034;-65
2022/08/23 12:54:53;;;;;;;3.22;1.55;;;;;;;28.36;31.47;101033.34;6031633;28;20026;-66
2022/08/23 12:57:55;;;;;;;3.85;1.20;;;;;;;28.26;31.67;101035.97;6037787;28;20120;-65
2022/08/23 13:00:53;;;;;;;3.15;0.90;;;;;;;28.77;31.30;101045.56;6040758;28;20041;-65
2022/08/23 13:03:58;;;;;;;5.18;1.70;;;;;;;28.38;32.42;101024.91;6037220;28;20040;-64
2022/08/23 13:06:56;;;;;;;3.53;1.17;;;;;;;28.72;32.72;101031.88;6042224;28;20096;-64
2022/08/23 13:09:52;;;;;;;2.70;1.00;;;;;;;29.04;31.30;101027.25;6058045;28;20536;-65
2022/08/23 13:12:48;;;;;;;2.30;0.90;;;;;;;29.00;30.65;101028.03;6041083;28;20034;-65
2022/08/23 13:15:55;;;;;;;3.45;1.13;;;;;;;28.61;31.63;101032.81;6045083;28;20034;-65
2022/08/23 13:18:50;;;;;;;4.05;1.20;;;;;;;29.03;31.68;101032.97;6042430;28;20088;-64
2022/08/23 13:21:46;;;;;;;6.23;1.13;;;;;;;29.06;30.96;101022.34;6041908;28;20038;-65
2022/08/23 13:24:43;;;;;;;2.97;1.50;;;;;;;28.95;31.89;101020.59;6042373;28;20212;-64
2022/08/23 13:27:44;;;;;;;3.15;1.13;;;;;;;29.59;31.00;101026.88;6030717;28;20284;-65
2022/08/23 13:30:57;;;;;;;3.05;1.00;;;;;;;29.68;30.60;101022.53;6042362;28;20095;-65
2022/08/23 13:33:52;;;;;;;1.52;0.82;;;;;;;29.67;31.21;101017.34;6026036;28;20550;-65
2022/08/23 13:36:48;;;;;;;6.13;1.57;;;;;;;29.73;29.89;101022.59;6033883;28;20084;-65
2022/08/23 13:39:46;;;;;;;1.87;0.90;;;;;;;29.68;29.89;101016.28;6033601;28;20041;-65
2022/08/23 13:42:47;;;;;;;3.92;1.05;;;;;;;29.31;30.19;101030.78;6039297;28;20412;-64
2022/08/23 13:45:48;;;;;;;3.65;1.40;;;;;;;29.29;30.21;101027.50;6042345;28;20124;-66
2022/08/23 13:49:00;;;;;;;3.28;1.00;;;;;;;29.21;30.62;101018.94;6031948;28;20029;-65
2022/08/23 13:51:58;;;;;;;3.03;1.08;;;;;;;28.82;31.06;101038.25;6046297;28;20030;-65
2022/08/23 13:54:53;;;;;;;3.17;1.08;;;;;;;29.04;31.37;101029.16;6047030;28;20033;-66
2022/08/23 13:57:49;;;;;;;2.90;1.00;;;;;;;29.17;30.44;101006.84;6044419;28;20140;-65
2022/08/23 14:00:46;;;;;;;2.92;1.13;;;;;;;29.50;30.35;101021.09;6041721;28;20033;-65